createdAt,value
2022-08-17T00:00:04.431Z,7.50
2022-08-17T00:00:49.404Z,7.90
2022-08-17T00:01:05.817Z,6.40
2022-08-17T00:01:51.300Z,7.00
2022-08-17T00:02:22.459Z,7.60
2022-08-17T00:02:43.135Z,7.50
2022-08-17T00:03:08.840Z,7.30
2022-08-17T00:03:39.592Z,6.90
2022-08-17T00:04:11.861Z,7.80
2022-08-17T00:04:40.965Z,6.30
2022-08-17T00:05:11.545Z,7.30
2022-08-17T00:05:41.288Z,6.10
2022-08-17T00:06:12.073Z,7.60
2022-08-17T00:06:43.666Z,7.70
2022-08-17T00:07:13.191Z,6.60
2022-08-17T00:07:43.977Z,7.70
2022-08-17T00:08:15.550Z,9.50
2022-08-17T00:08:46.122Z,5.40
2022-08-17T00:09:18.755Z,6.40
2022-08-17T00:09:47.209Z,6.80
2022-08-17T00:10:17.221Z,6.10
2022-08-17T00:10:48.003Z,8.20
2022-08-17T00:11:19.816Z,7.50
2022-08-17T00:12:34.982Z,6.10
2022-08-17T00:12:43.357Z,7.40
2022-08-17T00:12:52.350Z,6.20
2022-08-17T00:13:21.657Z,6.10
2022-08-17T00:13:56.034Z,7.10
2022-08-17T00:14:24.253Z,7.90
2022-08-17T00:14:53.996Z,9.00
2022-08-17T00:15:25.902Z,7.50
2022-08-17T00:15:56.456Z,12.60
2022-08-17T00:16:56.403Z,7.80
2022-08-17T00:16:57.856Z,8.20
2022-08-17T00:17:27.602Z,7.00
2022-08-17T00:17:59.422Z,5.60
2022-08-17T00:19:01.956Z,8.60
2022-08-17T00:19:07.719Z,6.00
2022-08-17T00:19:31.553Z,7.90
2022-08-17T00:20:01.298Z,7.30
2022-08-17T00:20:34.718Z,8.10
2022-08-17T00:21:04.905Z,8.90
2022-08-17T00:22:29.865Z,8.20
2022-08-17T00:22:34.309Z,8.20
2022-08-17T00:22:36.891Z,6.50
2022-08-17T00:23:06.203Z,8.90
2022-08-17T00:23:36.981Z,7.30
2022-08-17T00:24:07.741Z,8.50
2022-08-17T00:24:38.526Z,8.60
2022-08-17T00:25:10.096Z,7.40
2022-08-17T00:25:39.834Z,6.20
2022-08-17T00:26:14.280Z,8.20
2022-08-17T00:26:44.329Z,6.60
2022-08-17T00:27:13.353Z,7.20
2022-08-17T00:27:43.915Z,8.80
2022-08-17T00:28:14.461Z,9.10
2022-08-17T00:28:45.041Z,7.70
2022-08-17T00:29:14.986Z,6.70
2022-08-17T00:29:46.644Z,6.10
2022-08-17T00:30:16.381Z,9.50
2022-08-17T00:30:50.890Z,7.10
2022-08-17T00:31:19.910Z,7.60
2022-08-17T00:31:49.513Z,8.70
2022-08-17T00:33:12.226Z,7.40
2022-08-17T00:33:21.604Z,7.40
2022-08-17T00:33:22.993Z,8.70
2022-08-17T00:33:52.162Z,9.00
2022-08-17T00:34:22.771Z,8.90
2022-08-17T00:34:53.549Z,7.20
2022-08-17T00:35:24.325Z,7.60
2022-08-17T00:35:54.079Z,9.30
2022-08-17T00:36:24.888Z,7.70
2022-08-17T00:36:56.485Z,8.50
2022-08-17T00:37:27.056Z,6.70
2022-08-17T00:37:57.618Z,8.30
2022-08-17T00:38:28.186Z,7.00
2022-08-17T00:38:58.772Z,6.70
2022-08-17T00:39:28.586Z,7.60
2022-08-17T00:40:00.324Z,7.80
2022-08-17T00:40:39.753Z,7.30
2022-08-17T00:41:01.742Z,9.60
2022-08-17T00:41:31.485Z,8.60
2022-08-17T00:42:03.334Z,8.10
2022-08-17T00:42:34.132Z,7.00
2022-08-17T00:43:03.894Z,6.50
2022-08-17T00:43:35.463Z,6.60
2022-08-17T00:44:06.041Z,7.40
2022-08-17T00:44:35.774Z,7.00
2022-08-17T00:45:06.597Z,9.00
2022-08-17T00:45:37.386Z,6.80
2022-08-17T00:46:08.177Z,6.90
2022-08-17T00:46:40.000Z,7.00
2022-08-17T00:47:10.572Z,7.70
2022-08-17T00:47:40.609Z,7.80
2022-08-17T00:48:23.759Z,7.50
2022-08-17T00:48:43.222Z,7.10
2022-08-17T00:49:12.970Z,8.60
2022-08-17T00:49:44.577Z,8.70
2022-08-17T00:50:14.332Z,6.30
2022-08-17T00:50:45.126Z,7.70
2022-08-17T00:51:15.935Z,8.50
2022-08-17T00:51:47.556Z,10.90
2022-08-17T00:52:18.101Z,7.50
2022-08-17T00:52:47.853Z,6.20
2022-08-17T00:53:19.453Z,7.20
2022-08-17T00:53:50.007Z,8.10
2022-08-17T00:54:20.543Z,7.30
2022-08-17T00:54:51.081Z,7.00
2022-08-17T00:55:21.629Z,6.80
2022-08-17T00:55:51.378Z,10.80
2022-08-17T00:56:22.978Z,6.80
2022-08-17T00:56:53.519Z,8.50
2022-08-17T00:57:24.094Z,7.50
2022-08-17T00:57:55.533Z,10.10
2022-08-17T00:58:35.860Z,6.90
2022-08-17T00:58:56.358Z,6.70
2022-08-17T00:59:26.107Z,5.90
2022-08-17T01:00:02.995Z,7.70
2022-08-17T01:00:28.469Z,6.90
2022-08-17T01:00:58.265Z,6.50
2022-08-17T01:01:29.945Z,8.10
2022-08-17T01:02:00.540Z,9.10
2022-08-17T01:02:40.391Z,7.20
2022-08-17T01:03:01.917Z,6.40
2022-08-17T01:03:31.659Z,7.20
2022-08-17T01:04:03.240Z,6.90
2022-08-17T01:04:32.984Z,6.90
2022-08-17T01:05:04.591Z,7.90
2022-08-17T01:05:35.366Z,6.90
2022-08-17T01:06:05.923Z,6.60
2022-08-17T01:06:35.738Z,9.20
2022-08-17T01:07:07.580Z,8.20
2022-08-17T01:07:38.054Z,10.00
2022-08-17T01:08:09.210Z,6.70
2022-08-17T01:08:38.949Z,7.60
2022-08-17T01:09:10.576Z,6.90
2022-08-17T01:09:40.321Z,8.40
2022-08-17T01:10:57.305Z,8.00
2022-08-17T01:10:58.996Z,8.10
2022-08-17T01:11:13.464Z,7.50
2022-08-17T01:11:44.009Z,7.50
2022-08-17T01:12:13.788Z,6.00
2022-08-17T01:12:44.318Z,6.40
2022-08-17T01:13:15.111Z,8.60
2022-08-17T01:13:46.721Z,8.30
2022-08-17T01:14:16.737Z,7.20
2022-08-17T01:14:47.516Z,6.20
2022-08-17T01:15:19.131Z,7.30
2022-08-17T01:15:49.897Z,8.90
2022-08-17T01:16:19.631Z,9.10
2022-08-17T01:16:51.233Z,6.70
2022-08-17T01:17:21.992Z,6.20
2022-08-17T01:17:52.530Z,8.80
2022-08-17T01:18:22.552Z,8.10
2022-08-17T01:18:54.130Z,6.50
2022-08-17T01:19:23.848Z,6.90
2022-08-17T01:19:55.421Z,8.10
2022-08-17T01:20:26.010Z,7.20
2022-08-17T01:20:56.578Z,10.30
2022-08-17T01:21:26.312Z,8.20
2022-08-17T01:21:58.140Z,6.30
2022-08-17T01:22:28.917Z,6.90
2022-08-17T01:22:59.494Z,6.20
2022-08-17T01:23:30.029Z,11.20
2022-08-17T01:23:59.770Z,6.80
2022-08-17T01:24:31.380Z,6.30
2022-08-17T01:25:02.314Z,9.90
2022-08-17T01:25:32.891Z,9.80
2022-08-17T01:26:02.644Z,9.10
2022-08-17T01:26:33.434Z,6.20
2022-08-17T01:27:10.250Z,6.80
2022-08-17T01:27:35.804Z,7.00
2022-08-17T01:28:06.354Z,8.00
2022-08-17T01:28:54.767Z,8.00
2022-08-17T01:29:07.655Z,8.40
2022-08-17T01:29:38.205Z,6.80
2022-08-17T01:30:57.108Z,10.00
2022-08-17T01:30:57.376Z,7.20
2022-08-17T01:31:10.317Z,8.40
2022-08-17T01:31:40.848Z,7.00
2022-08-17T01:32:11.406Z,7.70
2022-08-17T01:32:42.016Z,8.10
2022-08-17T01:33:12.554Z,8.10
2022-08-17T01:33:43.095Z,8.50
2022-08-17T01:34:13.663Z,7.30
2022-08-17T01:34:50.182Z,6.10
2022-08-17T01:35:15.018Z,6.60
2022-08-17T01:35:45.562Z,9.60
2022-08-17T01:36:15.320Z,8.00
2022-08-17T01:36:47.040Z,7.40
2022-08-17T01:37:17.590Z,8.30
2022-08-17T01:37:48.157Z,7.70
2022-08-17T01:38:18.750Z,8.50
2022-08-17T01:38:49.526Z,8.90
2022-08-17T01:39:20.114Z,8.50
2022-08-17T01:39:50.916Z,8.20
2022-08-17T01:40:21.450Z,6.90
2022-08-17T01:40:57.014Z,8.30
2022-08-17T01:41:22.792Z,7.80
2022-08-17T01:41:53.399Z,7.20
2022-08-17T01:42:23.961Z,7.40
2022-08-17T01:42:54.530Z,7.60
2022-08-17T01:43:25.087Z,8.00
2022-08-17T01:43:54.826Z,11.00
2022-08-17T01:44:26.455Z,7.50
2022-08-17T01:44:57.136Z,7.90
2022-08-17T01:45:27.702Z,7.60
2022-08-17T01:46:02.756Z,7.20
2022-08-17T01:46:29.070Z,7.40
2022-08-17T01:46:59.620Z,7.60
2022-08-17T01:47:29.845Z,6.60
2022-08-17T01:47:59.805Z,7.20
2022-08-17T01:48:31.419Z,7.00
2022-08-17T01:49:01.988Z,7.40
2022-08-17T01:49:31.742Z,8.50
2022-08-17T01:50:03.563Z,9.50
2022-08-17T01:50:34.346Z,7.70
2022-08-17T01:51:06.255Z,7.50
2022-08-17T01:51:35.926Z,8.10
2022-08-17T01:52:06.489Z,10.70
2022-08-17T01:52:37.079Z,7.40
2022-08-17T01:53:06.827Z,11.10
2022-08-17T01:53:38.393Z,8.50
2022-08-17T01:54:08.171Z,7.10
2022-08-17T01:54:38.958Z,9.00
2022-08-17T01:55:10.573Z,7.40
2022-08-17T01:55:40.309Z,8.30
2022-08-17T01:56:11.912Z,8.00
2022-08-17T01:56:47.084Z,8.50
2022-08-17T01:57:13.244Z,8.00
2022-08-17T01:57:44.046Z,7.80
2022-08-17T01:58:13.790Z,8.70
2022-08-17T01:58:45.373Z,6.40
2022-08-17T01:59:15.105Z,7.20
2022-08-17T01:59:46.929Z,8.00
2022-08-17T02:00:17.489Z,7.60
2022-08-17T02:01:00.924Z,7.20
2022-08-17T02:01:19.107Z,9.30
2022-08-17T02:01:49.703Z,7.00
2022-08-17T02:02:30.343Z,7.50
2022-08-17T02:02:51.278Z,7.50
2022-08-17T02:03:21.846Z,7.10
2022-08-17T02:03:53.386Z,6.60
2022-08-17T02:04:23.410Z,6.90
2022-08-17T02:04:53.963Z,7.70
2022-08-17T02:05:24.541Z,6.40
2022-08-17T02:05:55.099Z,8.80
2022-08-17T02:06:27.948Z,10.10
2022-08-17T02:06:56.729Z,9.10
2022-08-17T02:07:27.296Z,6.70
2022-08-17T02:08:00.376Z,8.10
2022-08-17T02:08:38.804Z,6.50
2022-08-17T02:09:03.039Z,8.80
2022-08-17T02:09:29.717Z,7.00
2022-08-17T02:10:01.156Z,7.70
2022-08-17T02:10:34.078Z,8.90
2022-08-17T02:11:02.249Z,7.10
2022-08-17T02:11:32.805Z,6.80
2022-08-17T02:12:37.939Z,7.10
2022-08-17T02:12:37.991Z,9.20
2022-08-17T02:13:05.160Z,7.60
2022-08-17T02:13:34.897Z,8.30
2022-08-17T02:14:06.718Z,7.50
2022-08-17T02:14:37.253Z,9.10
2022-08-17T02:15:07.022Z,6.90
2022-08-17T02:15:37.958Z,7.10
2022-08-17T02:16:08.744Z,6.80
2022-08-17T02:16:40.340Z,6.90
2022-08-17T02:17:10.042Z,7.40
2022-08-17T02:17:41.710Z,7.30
2022-08-17T02:18:11.454Z,8.20
2022-08-17T02:18:42.239Z,6.80
2022-08-17T02:19:12.756Z,7.40
2022-08-17T02:19:43.552Z,7.80
2022-08-17T02:20:14.341Z,8.50
2022-08-17T02:20:45.955Z,6.90
2022-08-17T02:21:15.949Z,7.10
2022-08-17T02:21:47.568Z,9.60
2022-08-17T02:22:18.156Z,7.10
2022-08-17T02:22:48.954Z,6.60
2022-08-17T02:23:18.221Z,7.50
2022-08-17T02:23:49.002Z,8.60
2022-08-17T02:24:59.607Z,8.10
2022-08-17T02:25:00.095Z,7.20
2022-08-17T02:25:22.181Z,7.70
2022-08-17T02:25:52.723Z,7.40
2022-08-17T02:26:24.184Z,7.50
2022-08-17T02:26:53.022Z,7.70
2022-08-17T02:27:24.644Z,7.10
2022-08-17T02:27:54.391Z,8.70
2022-08-17T02:28:25.175Z,6.20
2022-08-17T02:28:55.703Z,7.80
2022-08-17T02:29:27.328Z,6.90
2022-08-17T02:29:57.859Z,6.60
2022-08-17T02:30:50.216Z,8.10
2022-08-17T02:31:03.195Z,6.30
2022-08-17T02:31:29.753Z,6.60
2022-08-17T02:31:59.496Z,7.80
2022-08-17T02:32:30.286Z,9.10
2022-08-17T02:33:04.217Z,8.10
2022-08-17T02:33:42.592Z,7.30
2022-08-17T02:34:05.147Z,6.90
2022-08-17T02:34:33.090Z,6.30
2022-08-17T02:35:04.696Z,6.30
2022-08-17T02:35:34.457Z,7.90
2022-08-17T02:36:06.072Z,7.50
2022-08-17T02:36:36.633Z,7.40
2022-08-17T02:37:07.207Z,7.00
2022-08-17T02:37:37.990Z,7.60
2022-08-17T02:38:07.723Z,8.20
2022-08-17T02:38:38.525Z,8.30
2022-08-17T02:39:10.343Z,6.70
2022-08-17T02:39:40.955Z,5.90
2022-08-17T02:40:10.825Z,6.40
2022-08-17T02:40:42.462Z,9.60
2022-08-17T02:41:13.134Z,7.20
2022-08-17T02:41:42.878Z,8.40
2022-08-17T02:42:14.495Z,8.10
2022-08-17T02:42:45.105Z,7.90
2022-08-17T02:43:15.676Z,7.30
2022-08-17T02:43:46.226Z,6.20
2022-08-17T02:44:39.778Z,7.20
2022-08-17T02:44:47.564Z,8.40
2022-08-17T02:45:17.317Z,6.60
2022-08-17T02:45:48.104Z,8.50
2022-08-17T02:46:19.135Z,7.60
2022-08-17T02:46:50.732Z,8.20
2022-08-17T02:47:20.471Z,6.40
2022-08-17T02:47:52.087Z,6.60
2022-08-17T02:48:30.665Z,6.90
2022-08-17T02:48:53.646Z,7.60
2022-08-17T02:49:24.212Z,9.90
2022-08-17T02:49:55.760Z,8.30
2022-08-17T02:50:25.572Z,7.60
2022-08-17T02:50:55.319Z,7.60
2022-08-17T02:51:26.900Z,8.10
2022-08-17T02:51:57.673Z,8.50
2022-08-17T02:52:42.486Z,7.80
2022-08-17T02:53:02.558Z,7.70
2022-08-17T02:53:35.842Z,7.30
2022-08-17T02:54:35.765Z,7.90
2022-08-17T02:54:39.737Z,7.10
2022-08-17T02:55:02.117Z,8.40
2022-08-17T02:55:31.861Z,8.00
2022-08-17T02:56:02.683Z,8.50
2022-08-17T02:56:34.264Z,7.20
2022-08-17T02:57:04.018Z,8.60
2022-08-17T02:57:34.931Z,8.60
2022-08-17T02:58:06.534Z,7.70
2022-08-17T02:58:37.064Z,9.50
2022-08-17T02:59:07.644Z,6.70
2022-08-17T02:59:38.218Z,6.30
2022-08-17T03:00:07.961Z,8.60
2022-08-17T03:00:39.541Z,8.00
2022-08-17T03:01:10.396Z,7.70
2022-08-17T03:01:40.238Z,6.90
2022-08-17T03:02:11.068Z,8.70
2022-08-17T03:02:42.743Z,11.40
2022-08-17T03:03:13.464Z,7.60
2022-08-17T03:03:44.003Z,11.40
2022-08-17T03:04:14.579Z,8.90
2022-08-17T03:04:45.127Z,7.60
2022-08-17T03:05:15.655Z,7.70
2022-08-17T03:05:46.426Z,7.50
2022-08-17T03:06:16.979Z,9.20
2022-08-17T03:06:46.710Z,9.60
2022-08-17T03:07:18.356Z,7.20
2022-08-17T03:07:50.454Z,10.40
2022-08-17T03:08:18.866Z,10.00
2022-08-17T03:08:50.472Z,9.80
2022-08-17T03:09:20.203Z,6.90
2022-08-17T03:09:50.741Z,8.10
2022-08-17T03:10:21.274Z,7.50
2022-08-17T03:10:52.919Z,8.70
2022-08-17T03:11:23.543Z,7.50
2022-08-17T03:11:53.297Z,7.40
2022-08-17T03:12:25.025Z,7.30
2022-08-17T03:12:55.599Z,8.20
2022-08-17T03:13:26.175Z,8.20
2022-08-17T03:13:56.790Z,8.40
2022-08-17T03:14:26.534Z,6.90
2022-08-17T03:14:58.353Z,8.80
2022-08-17T03:15:28.876Z,8.20
2022-08-17T03:15:59.428Z,7.70
2022-08-17T03:16:29.173Z,6.50
2022-08-17T03:16:59.964Z,7.40
2022-08-17T03:17:31.593Z,7.40
2022-08-17T03:18:02.156Z,6.90
2022-08-17T03:18:32.679Z,7.30
2022-08-17T03:19:03.235Z,7.10
2022-08-17T03:19:33.817Z,11.40
2022-08-17T03:20:04.367Z,7.80
2022-08-17T03:20:34.943Z,8.60
2022-08-17T03:21:04.709Z,8.40
2022-08-17T03:21:35.498Z,8.00
2022-08-17T03:22:35.516Z,8.70
2022-08-17T03:22:48.018Z,6.70
2022-08-17T03:23:09.136Z,8.80
2022-08-17T03:23:39.675Z,7.30
2022-08-17T03:24:10.219Z,7.90
2022-08-17T03:24:40.144Z,8.00
2022-08-17T03:25:10.941Z,8.50
2022-08-17T03:25:42.535Z,8.00
2022-08-17T03:26:15.603Z,9.50
2022-08-17T03:26:44.242Z,8.40
2022-08-17T03:27:14.798Z,7.60
2022-08-17T03:27:45.386Z,9.20
2022-08-17T03:28:16.094Z,6.80
2022-08-17T03:28:46.677Z,6.70
2022-08-17T03:29:17.221Z,7.10
2022-08-17T03:29:46.967Z,8.30
2022-08-17T03:30:18.576Z,7.30
2022-08-17T03:30:48.382Z,6.70
2022-08-17T03:31:19.991Z,8.00
2022-08-17T03:31:50.541Z,7.00
2022-08-17T03:32:21.103Z,8.30
2022-08-17T03:32:51.934Z,6.60
2022-08-17T03:33:21.305Z,8.90
2022-08-17T03:33:52.083Z,10.50
2022-08-17T03:34:23.717Z,9.20
2022-08-17T03:34:53.490Z,7.40
2022-08-17T03:35:24.288Z,10.80
2022-08-17T03:35:56.114Z,7.70
2022-08-17T03:36:26.699Z,5.90
2022-08-17T03:36:56.441Z,6.40
2022-08-17T03:37:28.088Z,7.40
2022-08-17T03:38:00.718Z,9.00
2022-08-17T03:38:29.419Z,6.60
2022-08-17T03:39:00.177Z,11.20
2022-08-17T03:39:30.813Z,8.80
2022-08-17T03:40:01.414Z,8.70
2022-08-17T03:40:55.026Z,7.20
2022-08-17T03:41:02.754Z,7.00
2022-08-17T03:41:32.497Z,7.90
2022-08-17T03:42:02.983Z,7.30
2022-08-17T03:42:34.538Z,8.70
2022-08-17T03:43:05.564Z,7.70
2022-08-17T03:43:36.598Z,8.30
2022-08-17T03:44:07.610Z,9.70
2022-08-17T03:44:37.452Z,8.00
2022-08-17T03:45:09.068Z,7.30
2022-08-17T03:45:39.839Z,8.00
2022-08-17T03:46:10.879Z,7.30
2022-08-17T03:46:41.189Z,8.80
2022-08-17T03:47:10.883Z,8.30
2022-08-17T03:47:42.450Z,7.70
2022-08-17T03:48:12.209Z,9.50
2022-08-17T03:48:42.958Z,8.60
2022-08-17T03:49:13.696Z,7.70
2022-08-17T03:49:45.285Z,8.90
2022-08-17T03:50:15.867Z,8.70
2022-08-17T03:50:46.400Z,7.60
2022-08-17T03:51:16.084Z,7.90
2022-08-17T03:51:47.640Z,8.00
2022-08-17T03:52:18.637Z,9.10
2022-08-17T03:52:48.315Z,9.10
2022-08-17T03:53:20.328Z,8.40
2022-08-17T03:53:50.316Z,7.90
2022-08-17T03:54:21.048Z,7.70
2022-08-17T03:54:52.609Z,8.20
2022-08-17T03:55:22.291Z,7.50
2022-08-17T03:55:54.061Z,7.50
2022-08-17T03:56:25.100Z,7.50
2022-08-17T03:56:55.621Z,8.90
2022-08-17T03:57:26.636Z,7.20
2022-08-17T03:57:56.330Z,9.40
2022-08-17T03:58:27.883Z,8.00
2022-08-17T03:58:58.617Z,7.80
2022-08-17T03:59:29.619Z,7.40
2022-08-17T04:00:00.622Z,8.80
2022-08-17T04:00:31.649Z,7.90
2022-08-17T04:01:01.450Z,8.70
2022-08-17T04:01:32.325Z,9.20
2022-08-17T04:02:03.903Z,10.20
2022-08-17T04:02:34.434Z,7.90
2022-08-17T04:03:05.436Z,8.10
2022-08-17T04:03:35.365Z,9.10
2022-08-17T04:04:06.934Z,9.40
2022-08-17T04:04:36.617Z,8.40
2022-08-17T04:05:08.137Z,7.80
2022-08-17T04:05:37.823Z,8.20
2022-08-17T04:06:09.602Z,7.90
2022-08-17T04:06:39.298Z,9.10
2022-08-17T04:07:10.003Z,10.20
2022-08-17T04:07:41.567Z,8.40
2022-08-17T04:08:12.306Z,10.40
2022-08-17T04:08:42.836Z,8.10
2022-08-17T04:09:13.860Z,10.40
2022-08-17T04:09:43.553Z,9.70
2022-08-17T04:10:15.323Z,8.90
2022-08-17T04:10:46.338Z,9.60
2022-08-17T04:11:16.853Z,7.50
2022-08-17T04:11:47.888Z,9.00
2022-08-17T04:12:18.899Z,8.90
2022-08-17T04:12:48.815Z,9.00
2022-08-17T04:13:24.846Z,8.40
2022-08-17T04:13:51.299Z,8.50
2022-08-17T04:14:21.805Z,9.10
2022-08-17T04:14:55.029Z,8.40
2022-08-17T04:15:22.468Z,7.40
2022-08-17T04:15:54.005Z,7.90
2022-08-17T04:16:25.016Z,7.50
2022-08-17T04:16:56.015Z,9.30
2022-08-17T04:17:27.064Z,9.10
2022-08-17T04:17:58.063Z,10.30
2022-08-17T04:18:29.051Z,11.30
2022-08-17T04:19:00.077Z,9.60
2022-08-17T04:19:31.105Z,10.80
2022-08-17T04:20:02.117Z,7.90
2022-08-17T04:20:31.805Z,8.40
2022-08-17T04:21:03.365Z,10.80
2022-08-17T04:21:34.358Z,8.20
2022-08-17T04:22:05.365Z,7.80
2022-08-17T04:22:36.378Z,9.00
2022-08-17T04:23:07.376Z,9.30
2022-08-17T04:23:37.060Z,8.80
2022-08-17T04:24:09.103Z,9.30
2022-08-17T04:24:40.134Z,8.80
2022-08-17T04:25:11.129Z,8.20
2022-08-17T04:25:41.083Z,8.90
2022-08-17T04:26:12.612Z,8.90
2022-08-17T04:26:54.024Z,7.60
2022-08-17T04:27:14.047Z,7.30
2022-08-17T04:27:45.078Z,10.80
2022-08-17T04:28:16.497Z,9.80
2022-08-17T04:28:47.043Z,8.90
2022-08-17T04:29:17.765Z,11.10
2022-08-17T04:29:54.547Z,9.70
2022-08-17T04:30:19.534Z,8.90
2022-08-17T04:30:49.215Z,10.00
2022-08-17T04:31:21.260Z,8.70
2022-08-17T04:31:51.220Z,8.20
2022-08-17T04:33:03.782Z,10.90
2022-08-17T04:33:04.596Z,10.40
2022-08-17T04:33:24.233Z,8.30
2022-08-17T04:33:53.920Z,8.00
2022-08-17T04:34:24.649Z,9.20
2022-08-17T04:34:56.199Z,7.70
2022-08-17T04:35:26.939Z,9.50
2022-08-17T04:35:57.478Z,7.90
2022-08-17T04:36:28.466Z,9.00
2022-08-17T04:36:58.154Z,9.10
2022-08-17T04:37:28.907Z,9.10
2022-08-17T04:38:00.670Z,9.50
2022-08-17T04:38:31.730Z,10.30
2022-08-17T04:39:02.257Z,8.60
2022-08-17T04:39:33.974Z,9.60
2022-08-17T04:40:04.562Z,8.50
2022-08-17T04:40:34.612Z,8.30
2022-08-17T04:41:05.335Z,7.60
2022-08-17T04:41:36.343Z,10.20
2022-08-17T04:42:07.066Z,9.60
2022-08-17T04:42:38.064Z,9.10
2022-08-17T04:43:09.091Z,8.80
2022-08-17T04:43:39.607Z,8.10
2022-08-17T04:44:10.624Z,11.10
2022-08-17T04:44:40.306Z,7.90
2022-08-17T04:45:12.361Z,9.00
2022-08-17T04:45:54.840Z,7.60
2022-08-17T04:46:15.110Z,9.80
2022-08-17T04:46:45.060Z,7.20
2022-08-17T04:47:16.065Z,9.70
2022-08-17T04:47:46.835Z,9.70
2022-08-17T04:48:17.322Z,8.60
2022-08-17T04:48:47.039Z,8.80
2022-08-17T04:49:18.618Z,10.90
2022-08-17T04:49:49.136Z,8.40
2022-08-17T04:50:19.977Z,11.40
2022-08-17T04:50:49.717Z,10.30
2022-08-17T04:51:21.236Z,8.20
2022-08-17T04:51:55.719Z,10.30
2022-08-17T04:52:32.264Z,10.10
2022-08-17T04:52:53.791Z,8.80
2022-08-17T04:53:23.559Z,8.90
2022-08-17T04:53:55.597Z,9.80
2022-08-17T04:54:26.612Z,9.40
2022-08-17T04:54:57.629Z,8.20
2022-08-17T04:55:28.149Z,9.20
2022-08-17T04:55:58.881Z,9.30
2022-08-17T04:56:28.570Z,8.10
2022-08-17T04:57:00.408Z,10.40
2022-08-17T04:57:30.094Z,9.60
2022-08-17T04:58:01.886Z,9.60
2022-08-17T04:58:32.883Z,9.30
2022-08-17T04:59:03.940Z,9.20
2022-08-17T04:59:34.467Z,9.10
2022-08-17T05:00:04.977Z,8.00
2022-08-17T05:00:35.993Z,10.20
2022-08-17T05:01:07.119Z,11.60
2022-08-17T05:01:37.697Z,7.90
2022-08-17T05:02:08.199Z,8.90
2022-08-17T05:02:39.230Z,8.60
2022-08-17T05:03:09.951Z,10.50
2022-08-17T05:03:39.632Z,7.90
2022-08-17T05:04:21.456Z,10.00
2022-08-17T05:04:41.932Z,7.50
2022-08-17T05:05:12.957Z,9.60
2022-08-17T05:05:43.946Z,9.60
2022-08-17T05:06:14.879Z,7.70
2022-08-17T05:06:44.566Z,11.00
2022-08-17T05:07:19.830Z,12.20
2022-08-17T05:07:46.842Z,13.10
2022-08-17T05:08:17.566Z,10.60
2022-08-17T05:08:47.252Z,11.30
2022-08-17T05:09:19.300Z,9.70
2022-08-17T05:09:50.275Z,9.10
2022-08-17T05:10:21.266Z,10.40
2022-08-17T05:10:52.261Z,10.40
2022-08-17T05:11:23.292Z,10.50
2022-08-17T05:11:53.793Z,9.30
2022-08-17T05:12:23.406Z,8.80
2022-08-17T05:12:55.444Z,10.00
2022-08-17T05:13:26.437Z,11.10
2022-08-17T05:13:56.125Z,9.00
2022-08-17T05:14:33.131Z,14.00
2022-08-17T05:14:58.625Z,12.70
2022-08-17T05:15:29.621Z,10.60
2022-08-17T05:15:59.228Z,9.20
2022-08-17T05:16:29.915Z,11.90
2022-08-17T05:17:01.461Z,10.10
2022-08-17T05:17:32.431Z,8.70
2022-08-17T05:18:02.958Z,8.60
2022-08-17T05:18:33.691Z,9.70
2022-08-17T05:19:03.378Z,9.30
2022-08-17T05:19:35.415Z,8.40
2022-08-17T05:20:05.008Z,11.30
2022-08-17T05:20:36.561Z,12.80
2022-08-17T05:21:07.105Z,9.90
2022-08-17T05:21:36.799Z,10.00
2022-08-17T05:22:08.363Z,9.80
2022-08-17T05:22:39.368Z,9.50
2022-08-17T05:23:09.057Z,8.50
2022-08-17T05:23:42.667Z,10.30
2022-08-17T05:24:38.223Z,10.70
2022-08-17T05:24:53.596Z,10.10
2022-08-17T05:25:13.045Z,9.20
2022-08-17T05:25:46.768Z,9.70
2022-08-17T05:26:26.225Z,10.90
2022-08-17T05:26:45.631Z,9.90
2022-08-17T05:27:18.798Z,7.80
2022-08-17T05:27:47.163Z,10.80
2022-08-17T05:28:18.122Z,11.80
2022-08-17T05:28:48.978Z,11.50
2022-08-17T05:29:19.779Z,11.20
2022-08-17T05:29:49.465Z,9.30
2022-08-17T05:30:21.238Z,9.80
2022-08-17T05:30:52.278Z,12.40
2022-08-17T05:31:23.278Z,8.80
2022-08-17T05:31:54.282Z,12.20
2022-08-17T05:32:48.324Z,9.10
2022-08-17T05:32:55.746Z,10.50
2022-08-17T05:33:26.259Z,11.70
2022-08-17T05:33:56.792Z,11.60
2022-08-17T05:34:27.367Z,9.90
2022-08-17T05:34:57.848Z,9.30
2022-08-17T05:35:28.656Z,9.70
2022-08-17T05:35:59.182Z,11.60
2022-08-17T05:36:41.861Z,10.70
2022-08-17T05:37:00.625Z,10.40
2022-08-17T05:37:31.151Z,11.30
2022-08-17T05:38:02.163Z,11.20
2022-08-17T05:38:33.190Z,13.40
2022-08-17T05:39:04.193Z,9.90
2022-08-17T05:39:34.960Z,12.10
2022-08-17T05:40:05.598Z,11.60
2022-08-17T05:40:35.318Z,8.30
2022-08-17T05:41:06.891Z,9.20
2022-08-17T05:41:37.885Z,13.60
2022-08-17T05:42:08.893Z,8.80
2022-08-17T05:42:39.906Z,10.70
2022-08-17T05:43:10.899Z,9.70
2022-08-17T05:43:41.892Z,10.30
2022-08-17T05:44:12.906Z,11.10
2022-08-17T05:44:42.644Z,12.80
2022-08-17T05:45:14.211Z,10.80
2022-08-17T05:45:55.448Z,13.10
2022-08-17T05:46:15.920Z,10.10
2022-08-17T05:46:46.915Z,12.00
2022-08-17T05:47:17.920Z,14.70
2022-08-17T05:47:47.628Z,10.80
2022-08-17T05:48:18.373Z,11.10
2022-08-17T05:48:49.926Z,9.60
2022-08-17T05:49:20.962Z,11.60
2022-08-17T05:49:51.520Z,13.50
2022-08-17T05:50:26.952Z,11.90
2022-08-17T05:50:52.985Z,10.10
2022-08-17T05:51:24.018Z,12.70
2022-08-17T05:51:54.529Z,14.50
2022-08-17T05:52:25.051Z,10.70
2022-08-17T05:52:56.070Z,10.90
2022-08-17T05:53:26.793Z,12.70
2022-08-17T05:53:57.830Z,11.70
2022-08-17T05:54:28.837Z,14.20
2022-08-17T05:54:59.874Z,12.10
2022-08-17T05:55:29.574Z,12.80
2022-08-17T05:56:01.138Z,10.20
2022-08-17T05:56:32.152Z,14.50
2022-08-17T05:57:03.726Z,12.10
2022-08-17T05:57:33.467Z,13.40
2022-08-17T05:58:03.971Z,12.40
2022-08-17T05:58:33.657Z,12.30
2022-08-17T05:59:05.193Z,11.30
2022-08-17T05:59:34.889Z,11.40
2022-08-17T06:00:06.662Z,11.10
2022-08-17T06:00:37.696Z,15.10
2022-08-17T06:01:08.555Z,12.80
2022-08-17T06:01:39.135Z,12.80
2022-08-17T06:02:09.616Z,12.00
2022-08-17T06:02:44.175Z,11.40
2022-08-17T06:03:11.392Z,18.10
2022-08-17T06:03:42.136Z,15.20
2022-08-17T06:04:13.124Z,13.80
2022-08-17T06:04:44.122Z,11.60
2022-08-17T06:05:15.158Z,12.10
2022-08-17T06:05:45.680Z,10.30
2022-08-17T06:06:15.380Z,14.20
2022-08-17T06:06:46.917Z,14.50
2022-08-17T06:07:17.914Z,13.70
2022-08-17T06:07:48.966Z,13.40
2022-08-17T06:08:19.997Z,14.80
2022-08-17T06:08:51.733Z,15.00
2022-08-17T06:09:27.600Z,12.60
2022-08-17T06:09:52.618Z,12.40
2022-08-17T06:10:22.320Z,11.30
2022-08-17T06:10:54.131Z,13.40
2022-08-17T06:11:24.684Z,12.60
2022-08-17T06:11:55.217Z,13.20
2022-08-17T06:12:24.913Z,14.20
2022-08-17T06:12:56.466Z,16.30
2022-08-17T06:13:27.463Z,13.60
2022-08-17T06:13:58.499Z,11.70
2022-08-17T06:14:28.217Z,9.90
2022-08-17T06:14:59.762Z,11.20
2022-08-17T06:15:29.468Z,12.10
2022-08-17T06:16:01.002Z,11.40
2022-08-17T06:16:34.128Z,12.50
2022-08-17T06:17:02.585Z,11.00
2022-08-17T06:17:33.596Z,12.50
2022-08-17T06:18:04.132Z,10.60
2022-08-17T06:18:34.629Z,17.70
2022-08-17T06:19:05.622Z,14.80
2022-08-17T06:19:36.664Z,11.30
2022-08-17T06:20:07.161Z,10.90
2022-08-17T06:20:37.913Z,13.20
2022-08-17T06:21:08.459Z,11.80
2022-08-17T06:21:38.138Z,14.60
2022-08-17T06:22:09.668Z,11.40
2022-08-17T06:22:40.681Z,13.00
2022-08-17T06:23:11.692Z,11.00
2022-08-17T06:23:42.682Z,9.60
2022-08-17T06:24:12.377Z,12.60
2022-08-17T06:24:43.967Z,10.60
2022-08-17T06:25:14.458Z,14.80
2022-08-17T06:25:45.472Z,12.40
2022-08-17T06:26:16.474Z,12.10
2022-08-17T06:26:47.499Z,9.80
2022-08-17T06:27:18.521Z,11.20
2022-08-17T06:27:53.354Z,11.50
2022-08-17T06:28:20.225Z,10.50
2022-08-17T06:28:51.219Z,13.80
2022-08-17T06:29:22.212Z,13.10
2022-08-17T06:29:51.915Z,14.10
2022-08-17T06:30:23.498Z,14.60
2022-08-17T06:30:59.513Z,11.80
2022-08-17T06:31:25.256Z,8.90
2022-08-17T06:31:54.968Z,12.40
2022-08-17T06:32:26.489Z,8.90
2022-08-17T06:32:56.442Z,11.50
2022-08-17T06:33:28.010Z,10.40
2022-08-17T06:33:59.004Z,11.40
2022-08-17T06:34:29.995Z,12.70
2022-08-17T06:34:59.707Z,11.00
2022-08-17T06:35:31.992Z,10.70
2022-08-17T06:36:01.959Z,15.20
2022-08-17T06:36:31.605Z,13.00
2022-08-17T06:37:03.728Z,10.40
2022-08-17T06:37:34.264Z,10.20
2022-08-17T06:38:05.265Z,11.80
2022-08-17T06:38:37.863Z,11.10
2022-08-17T06:39:06.013Z,8.90
2022-08-17T06:39:37.637Z,10.60
2022-08-17T06:40:08.221Z,11.30
2022-08-17T06:40:38.716Z,14.50
2022-08-17T06:41:09.745Z,12.10
2022-08-17T06:41:40.270Z,10.80
2022-08-17T06:42:10.799Z,13.00
2022-08-17T06:43:04.105Z,10.60
2022-08-17T06:43:12.670Z,12.30
2022-08-17T06:43:46.155Z,12.50
2022-08-17T06:44:43.669Z,9.80
2022-08-17T06:44:51.112Z,12.30
2022-08-17T06:45:15.397Z,12.40